sensor_id;sensor_type;location;lat;lon;timestamp;temperature;humidity
73586;DHT22;61865;50.232;18.614;2022-12-07T00:00:10;2.10;99.90
73586;DHT22;61865;50.232;18.614;2022-12-07T00:02:32;2.10;99.90
73586;DHT22;61865;50.232;18.614;2022-12-07T00:04:56;2.10;99.90
73586;DHT22;61865;50.232;18.614;2022-12-07T00:07:17;2.10;99.90
73586;DHT22;61865;50.232;18.614;2022-12-07T00:09:39;2.20;99.90
73586;DHT22;61865;50.232;18.614;2022-12-07T00:12:02;2.20;99.90
73586;DHT22;61865;50.232;18.614;2022-12-07T00:14:24;2.20;99.90
73586;DHT22;61865;50.232;18.614;2022-12-07T00:16:49;2.20;99.90
73586;DHT22;61865;50.232;18.614;2022-12-07T00:19:11;2.20;99.90
73586;DHT22;61865;50.232;18.614;2022-12-07T00:21:35;2.20;99.90
73586;DHT22;61865;50.232;18.614;2022-12-07T00:23:58;2.20;99.90
73586;DHT22;61865;50.232;18.614;2022-12-07T00:26:21;2.30;99.90
73586;DHT22;61865;50.232;18.614;2022-12-07T00:28:46;2.30;99.90
73586;DHT22;61865;50.232;18.614;2022-12-07T00:31:10;2.20;99.90
73586;DHT22;61865;50.232;18.614;2022-12-07T00:33:33;2.00;99.90
73586;DHT22;61865;50.232;18.614;2022-12-07T00:35:55;1.90;99.90
73586;DHT22;61865;50.232;18.614;2022-12-07T00:38:19;2.00;99.90
73586;DHT22;61865;50.232;18.614;2022-12-07T00:40:42;2.10;99.90
73586;DHT22;61865;50.232;18.614;2022-12-07T00:43:03;2.10;99.90
73586;DHT22;61865;50.232;18.614;2022-12-07T00:45:25;2.00;99.90
73586;DHT22;61865;50.232;18.614;2022-12-07T00:47:47;1.90;99.90
73586;DHT22;61865;50.232;18.614;2022-12-07T00:50:09;1.90;99.90
73586;DHT22;61865;50.232;18.614;2022-12-07T00:52:31;1.90;99.90
73586;DHT22;61865;50.232;18.614;2022-12-07T00:54:55;2.10;99.90
73586;DHT22;61865;50.232;18.614;2022-12-07T00:57:16;2.10;99.90
73586;DHT22;61865;50.232;18.614;2022-12-07T00:59:38;2.20;99.90
73586;DHT22;61865;50.232;18.614;2022-12-07T01:02:00;2.20;99.90
73586;DHT22;61865;50.232;18.614;2022-12-07T01:04:22;2.20;99.90
73586;DHT22;61865;50.232;18.614;2022-12-07T01:06:44;2.20;99.90
73586;DHT22;61865;50.232;18.614;2022-12-07T01:09:06;2.30;99.90
73586;DHT22;61865;50.232;18.614;2022-12-07T01:11:30;2.30;99.90
73586;DHT22;61865;50.232;18.614;2022-12-07T01:13:53;2.30;99.90
73586;DHT22;61865;50.232;18.614;2022-12-07T01:16:16;2.30;99.90
73586;DHT22;61865;50.232;18.614;2022-12-07T01:18:39;2.40;99.90
73586;DHT22;61865;50.232;18.614;2022-12-07T01:21:02;2.40;99.90
73586;DHT22;61865;50.232;18.614;2022-12-07T01:23:25;2.40;99.90
73586;DHT22;61865;50.232;18.614;2022-12-07T01:25:54;2.40;99.90
73586;DHT22;61865;50.232;18.614;2022-12-07T01:28:17;2.40;99.90
73586;DHT22;61865;50.232;18.614;2022-12-07T01:30:39;2.40;99.90
73586;DHT22;61865;50.232;18.614;2022-12-07T01:33:01;2.30;99.90
73586;DHT22;61865;50.232;18.614;2022-12-07T01:35:23;2.30;99.90
73586;DHT22;61865;50.232;18.614;2022-12-07T01:37:45;2.30;99.90
73586;DHT22;61865;50.232;18.614;2022-12-07T01:40:09;2.40;99.90
73586;DHT22;61865;50.232;18.614;2022-12-07T01:42:32;2.40;99.90
73586;DHT22;61865;50.232;18.614;2022-12-07T01:47:53;2.40;99.90
73586;DHT22;61865;50.232;18.614;2022-12-07T01:50:16;2.40;99.90
73586;DHT22;61865;50.232;18.614;2022-12-07T01:52:38;2.40;99.90
73586;DHT22;61865;50.232;18.614;2022-12-07T01:55:02;2.40;99.90
73586;DHT22;61865;50.232;18.614;2022-12-07T01:57:26;2.40;99.90
73586;DHT22;61865;50.232;18.614;2022-12-07T01:59:50;2.40;99.90
73586;DHT22;61865;50.232;18.614;2022-12-07T02:02:18;2.40;99.90
73586;DHT22;61865;50.232;18.614;2022-12-07T02:04:42;2.40;99.90
73586;DHT22;61865;50.232;18.614;2022-12-07T02:07:05;2.40;99.90
73586;DHT22;61865;50.232;18.614;2022-12-07T02:09:28;2.40;99.90
73586;DHT22;61865;50.232;18.614;2022-12-07T02:11:51;2.30;99.90
73586;DHT22;61865;50.232;18.614;2022-12-07T02:14:13;2.30;99.90
73586;DHT22;61865;50.232;18.614;2022-12-07T02:16:42;2.40;99.90
73586;DHT22;61865;50.232;18.614;2022-12-07T02:19:30;2.20;99.90
73586;DHT22;61865;50.232;18.614;2022-12-07T02:22:06;2.10;99.90
73586;DHT22;61865;50.232;18.614;2022-12-07T02:24:48;2.10;99.90
73586;DHT22;61865;50.232;18.614;2022-12-07T02:27:36;2.10;99.90
73586;DHT22;61865;50.232;18.614;2022-12-07T02:30:03;2.10;99.90
73586;DHT22;61865;50.232;18.614;2022-12-07T02:32:28;2.00;99.90
73586;DHT22;61865;50.232;18.614;2022-12-07T02:35:00;1.90;99.90
73586;DHT22;61865;50.232;18.614;2022-12-07T02:37:31;1.90;99.90
73586;DHT22;61865;50.232;18.614;2022-12-07T02:39:58;1.90;99.90
73586;DHT22;61865;50.232;18.614;2022-12-07T02:42:23;1.90;99.90
73586;DHT22;61865;50.232;18.614;2022-12-07T02:44:47;1.90;99.90
73586;DHT22;61865;50.232;18.614;2022-12-07T02:47:14;1.90;99.90
73586;DHT22;61865;50.232;18.614;2022-12-07T02:49:38;1.90;99.90
73586;DHT22;61865;50.232;18.614;2022-12-07T02:52:01;1.90;99.90
73586;DHT22;61865;50.232;18.614;2022-12-07T02:54:23;1.90;99.90
73586;DHT22;61865;50.232;18.614;2022-12-07T02:56:48;2.00;99.90
73586;DHT22;61865;50.232;18.614;2022-12-07T02:59:17;2.10;99.90
73586;DHT22;61865;50.232;18.614;2022-12-07T03:01:48;2.10;99.90
73586;DHT22;61865;50.232;18.614;2022-12-07T03:04:27;2.10;99.90
73586;DHT22;61865;50.232;18.614;2022-12-07T03:06:57;2.10;99.90
73586;DHT22;61865;50.232;18.614;2022-12-07T03:09:27;2.10;99.90
73586;DHT22;61865;50.232;18.614;2022-12-07T03:12:01;2.10;99.90
73586;DHT22;61865;50.232;18.614;2022-12-07T03:14:31;2.10;99.90
73586;DHT22;61865;50.232;18.614;2022-12-07T03:16:58;2.10;99.90
73586;DHT22;61865;50.232;18.614;2022-12-07T03:19:26;2.10;99.90
73586;DHT22;61865;50.232;18.614;2022-12-07T03:21:52;2.10;99.90
73586;DHT22;61865;50.232;18.614;2022-12-07T03:24:18;2.10;99.90
73586;DHT22;61865;50.232;18.614;2022-12-07T03:26:44;2.20;99.90
73586;DHT22;61865;50.232;18.614;2022-12-07T03:29:14;2.10;99.90
73586;DHT22;61865;50.232;18.614;2022-12-07T03:31:41;2.20;99.90
73586;DHT22;61865;50.232;18.614;2022-12-07T03:34:07;2.20;99.90
73586;DHT22;61865;50.232;18.614;2022-12-07T03:36:35;2.20;99.90
73586;DHT22;61865;50.232;18.614;2022-12-07T03:39:03;2.10;99.90
73586;DHT22;61865;50.232;18.614;2022-12-07T03:41:31;2.00;99.90
73586;DHT22;61865;50.232;18.614;2022-12-07T03:43:55;2.00;99.90
73586;DHT22;61865;50.232;18.614;2022-12-07T03:46:20;2.00;99.90
73586;DHT22;61865;50.232;18.614;2022-12-07T03:48:54;2.00;99.90
73586;DHT22;61865;50.232;18.614;2022-12-07T03:51:22;1.90;99.90
73586;DHT22;61865;50.232;18.614;2022-12-07T03:53:51;1.90;99.90
73586;DHT22;61865;50.232;18.614;2022-12-07T03:56:14;1.90;99.90
73586;DHT22;61865;50.232;18.614;2022-12-07T03:58:37;1.80;99.90
73586;DHT22;61865;50.232;18.614;2022-12-07T04:00:59;1.90;99.90
73586;DHT22;61865;50.232;18.614;2022-12-07T04:03:24;1.80;99.90
73586;DHT22;61865;50.232;18.614;2022-12-07T04:05:46;1.90;99.90
73586;DHT22;61865;50.232;18.614;2022-12-07T04:08:08;1.90;99.90
73586;DHT22;61865;50.232;18.614;2022-12-07T04:10:31;1.80;99.90
73586;DHT22;61865;50.232;18.614;2022-12-07T04:12:53;1.80;99.90
73586;DHT22;61865;50.232;18.614;2022-12-07T04:15:15;1.80;99.90
73586;DHT22;61865;50.232;18.614;2022-12-07T04:17:37;1.70;99.90
73586;DHT22;61865;50.232;18.614;2022-12-07T04:19:59;1.80;99.90
73586;DHT22;61865;50.232;18.614;2022-12-07T04:22:21;1.80;99.90
73586;DHT22;61865;50.232;18.614;2022-12-07T04:24:43;1.90;99.90
73586;DHT22;61865;50.232;18.614;2022-12-07T04:27:07;1.80;99.90
73586;DHT22;61865;50.232;18.614;2022-12-07T04:29:29;1.90;99.90
73586;DHT22;61865;50.232;18.614;2022-12-07T04:31:51;2.00;99.90
73586;DHT22;61865;50.232;18.614;2022-12-07T04:34:13;1.90;99.90
73586;DHT22;61865;50.232;18.614;2022-12-07T04:36:36;2.00;99.90
73586;DHT22;61865;50.232;18.614;2022-12-07T04:38:58;1.90;99.90
73586;DHT22;61865;50.232;18.614;2022-12-07T04:41:20;1.90;99.90
73586;DHT22;61865;50.232;18.614;2022-12-07T04:43:48;1.80;99.90
73586;DHT22;61865;50.232;18.614;2022-12-07T04:46:10;1.80;99.90
73586;DHT22;61865;50.232;18.614;2022-12-07T04:48:32;1.80;99.90
73586;DHT22;61865;50.232;18.614;2022-12-07T04:50:54;1.70;99.90
73586;DHT22;61865;50.232;18.614;2022-12-07T04:53:16;1.70;99.90
73586;DHT22;61865;50.232;18.614;2022-12-07T04:55:38;1.80;99.90
73586;DHT22;61865;50.232;18.614;2022-12-07T04:58:00;1.80;99.90
73586;DHT22;61865;50.232;18.614;2022-12-07T05:00:23;1.80;99.90
73586;DHT22;61865;50.232;18.614;2022-12-07T05:02:46;1.80;99.90
73586;DHT22;61865;50.232;18.614;2022-12-07T05:05:08;1.90;99.90
73586;DHT22;61865;50.232;18.614;2022-12-07T05:07:30;1.80;99.90
73586;DHT22;61865;50.232;18.614;2022-12-07T05:09:52;1.90;99.90
73586;DHT22;61865;50.232;18.614;2022-12-07T05:12:13;1.90;99.90
73586;DHT22;61865;50.232;18.614;2022-12-07T05:14:35;1.90;99.90
73586;DHT22;61865;50.232;18.614;2022-12-07T05:16:59;2.00;99.90
73586;DHT22;61865;50.232;18.614;2022-12-07T05:19:21;1.90;99.90
73586;DHT22;61865;50.232;18.614;2022-12-07T05:21:43;2.00;99.90
73586;DHT22;61865;50.232;18.614;2022-12-07T05:24:06;2.00;99.90
73586;DHT22;61865;50.232;18.614;2022-12-07T05:26:28;2.00;99.90
73586;DHT22;61865;50.232;18.614;2022-12-07T05:28:51;2.00;99.90
73586;DHT22;61865;50.232;18.614;2022-12-07T05:31:13;2.00;99.90
73586;DHT22;61865;50.232;18.614;2022-12-07T05:33:36;2.00;99.90
73586;DHT22;61865;50.232;18.614;2022-12-07T05:35:58;2.00;99.90
73586;DHT22;61865;50.232;18.614;2022-12-07T05:38:25;2.00;99.90
73586;DHT22;61865;50.232;18.614;2022-12-07T05:40:47;2.00;99.90
73586;DHT22;61865;50.232;18.614;2022-12-07T05:43:09;2.00;99.90
73586;DHT22;61865;50.232;18.614;2022-12-07T05:45:31;1.90;99.90
73586;DHT22;61865;50.232;18.614;2022-12-07T05:47:53;2.00;99.90
73586;DHT22;61865;50.232;18.614;2022-12-07T05:50:16;2.00;99.90
73586;DHT22;61865;50.232;18.614;2022-12-07T05:52:38;1.90;99.90
73586;DHT22;61865;50.232;18.614;2022-12-07T05:55:00;1.80;99.90
73586;DHT22;61865;50.232;18.614;2022-12-07T05:57:22;1.80;99.90
73586;DHT22;61865;50.232;18.614;2022-12-07T05:59:44;1.70;99.90
73586;DHT22;61865;50.232;18.614;2022-12-07T06:02:07;1.70;99.90
73586;DHT22;61865;50.232;18.614;2022-12-07T06:04:32;1.60;99.90
73586;DHT22;61865;50.232;18.614;2022-12-07T06:06:56;1.50;99.90
73586;DHT22;61865;50.232;18.614;2022-12-07T06:09:19;1.60;99.90
73586;DHT22;61865;50.232;18.614;2022-12-07T06:11:41;1.50;99.90
73586;DHT22;61865;50.232;18.614;2022-12-07T06:14:20;1.40;99.90
73586;DHT22;61865;50.232;18.614;2022-12-07T06:16:42;1.40;99.90
73586;DHT22;61865;50.232;18.614;2022-12-07T06:19:04;1.50;99.90
73586;DHT22;61865;50.232;18.614;2022-12-07T06:21:26;1.50;99.90
73586;DHT22;61865;50.232;18.614;2022-12-07T06:23:49;1.50;99.90
73586;DHT22;61865;50.232;18.614;2022-12-07T06:26:11;1.60;99.90
73586;DHT22;61865;50.232;18.614;2022-12-07T06:28:33;1.60;99.90
73586;DHT22;61865;50.232;18.614;2022-12-07T06:30:57;1.50;99.90
73586;DHT22;61865;50.232;18.614;2022-12-07T06:33:19;1.60;99.90
73586;DHT22;61865;50.232;18.614;2022-12-07T06:35:41;1.50;99.90
73586;DHT22;61865;50.232;18.614;2022-12-07T06:38:03;1.50;99.90
73586;DHT22;61865;50.232;18.614;2022-12-07T06:40:26;1.60;99.90
73586;DHT22;61865;50.232;18.614;2022-12-07T06:42:48;1.50;99.90
73586;DHT22;61865;50.232;18.614;2022-12-07T06:45:10;1.50;99.90
73586;DHT22;61865;50.232;18.614;2022-12-07T06:47:35;1.50;99.90
73586;DHT22;61865;50.232;18.614;2022-12-07T06:49:57;1.60;99.90
73586;DHT22;61865;50.232;18.614;2022-12-07T06:52:19;1.60;99.90
73586;DHT22;61865;50.232;18.614;2022-12-07T06:54:43;1.60;99.90
73586;DHT22;61865;50.232;18.614;2022-12-07T06:57:06;1.60;99.90
73586;DHT22;61865;50.232;18.614;2022-12-07T06:59:31;1.60;99.90
73586;DHT22;61865;50.232;18.614;2022-12-07T07:01:53;1.60;99.90
73586;DHT22;61865;50.232;18.614;2022-12-07T07:04:15;1.60;99.90
73586;DHT22;61865;50.232;18.614;2022-12-07T07:06:37;1.60;99.90
73586;DHT22;61865;50.232;18.614;2022-12-07T07:09:02;1.80;99.90
73586;DHT22;61865;50.232;18.614;2022-12-07T07:11:26;1.70;99.90
73586;DHT22;61865;50.232;18.614;2022-12-07T07:13:49;1.70;99.90
73586;DHT22;61865;50.232;18.614;2022-12-07T07:16:11;1.70;99.90
73586;DHT22;61865;50.232;18.614;2022-12-07T07:18:33;1.70;99.90
73586;DHT22;61865;50.232;18.614;2022-12-07T07:20:55;1.70;99.90
73586;DHT22;61865;50.232;18.614;2022-12-07T07:23:17;1.70;99.90
73586;DHT22;61865;50.232;18.614;2022-12-07T07:25:39;1.80;99.90
73586;DHT22;61865;50.232;18.614;2022-12-07T07:28:04;1.80;99.90
73586;DHT22;61865;50.232;18.614;2022-12-07T07:30:28;1.90;99.90
73586;DHT22;61865;50.232;18.614;2022-12-07T07:32:50;1.90;99.90
73586;DHT22;61865;50.232;18.614;2022-12-07T07:35:12;1.80;99.90
73586;DHT22;61865;50.232;18.614;2022-12-07T07:37:34;1.90;99.90
73586;DHT22;61865;50.232;18.614;2022-12-07T07:39:56;1.90;99.90
73586;DHT22;61865;50.232;18.614;2022-12-07T07:42:18;2.00;99.90
73586;DHT22;61865;50.232;18.614;2022-12-07T07:44:40;2.10;99.90
73586;DHT22;61865;50.232;18.614;2022-12-07T07:47:03;2.20;99.90
73586;DHT22;61865;50.232;18.614;2022-12-07T07:49:26;2.30;99.90
73586;DHT22;61865;50.232;18.614;2022-12-07T07:51:48;2.40;99.90
73586;DHT22;61865;50.232;18.614;2022-12-07T07:54:10;2.40;99.90
73586;DHT22;61865;50.232;18.614;2022-12-07T07:56:32;2.40;99.90
73586;DHT22;61865;50.232;18.614;2022-12-07T07:58:54;2.50;99.90
73586;DHT22;61865;50.232;18.614;2022-12-07T08:01:16;2.60;99.90
73586;DHT22;61865;50.232;18.614;2022-12-07T08:03:41;2.50;99.90
73586;DHT22;61865;50.232;18.614;2022-12-07T08:06:03;2.50;99.90
73586;DHT22;61865;50.232;18.614;2022-12-07T08:08:25;2.50;99.90
73586;DHT22;61865;50.232;18.614;2022-12-07T08:10:47;2.50;99.90
73586;DHT22;61865;50.232;18.614;2022-12-07T08:13:09;2.60;99.90
73586;DHT22;61865;50.232;18.614;2022-12-07T08:15:37;2.60;99.90
73586;DHT22;61865;50.232;18.614;2022-12-07T08:17:59;2.60;99.90
73586;DHT22;61865;50.232;18.614;2022-12-07T08:20:23;2.60;99.90
73586;DHT22;61865;50.232;18.614;2022-12-07T08:22:45;2.50;99.90
73586;DHT22;61865;50.232;18.614;2022-12-07T08:25:07;2.60;99.90
73586;DHT22;61865;50.232;18.614;2022-12-07T08:27:29;2.60;99.90
73586;DHT22;61865;50.232;18.614;2022-12-07T08:29:51;2.60;99.90
73586;DHT22;61865;50.232;18.614;2022-12-07T08:32:13;2.60;99.90
73586;DHT22;61865;50.232;18.614;2022-12-07T08:34:35;2.60;99.90
73586;DHT22;61865;50.232;18.614;2022-12-07T08:36:58;2.60;99.90
73586;DHT22;61865;50.232;18.614;2022-12-07T08:39:21;2.70;99.90
73586;DHT22;61865;50.232;18.614;2022-12-07T08:41:43;2.70;99.90
73586;DHT22;61865;50.232;18.614;2022-12-07T08:44:07;2.70;99.90
73586;DHT22;61865;50.232;18.614;2022-12-07T08:46:32;2.80;99.90
73586;DHT22;61865;50.232;18.614;2022-12-07T08:49:01;3.00;99.90
73586;DHT22;61865;50.232;18.614;2022-12-07T08:51:25;3.00;99.90
73586;DHT22;61865;50.232;18.614;2022-12-07T08:53:50;3.00;99.90
73586;DHT22;61865;50.232;18.614;2022-12-07T08:56:15;2.80;99.90
73586;DHT22;61865;50.232;18.614;2022-12-07T08:58:38;2.90;99.90
73586;DHT22;61865;50.232;18.614;2022-12-07T09:01:00;2.90;99.90
73586;DHT22;61865;50.232;18.614;2022-12-07T09:03:25;3.00;99.90
73586;DHT22;61865;50.232;18.614;2022-12-07T09:05:49;3.10;99.90
73586;DHT22;61865;50.232;18.614;2022-12-07T09:08:14;3.10;99.90
73586;DHT22;61865;50.232;18.614;2022-12-07T09:10:41;3.10;99.90
73586;DHT22;61865;50.232;18.614;2022-12-07T09:13:03;3.20;99.90
73586;DHT22;61865;50.232;18.614;2022-12-07T09:15:25;3.30;99.90
73586;DHT22;61865;50.232;18.614;2022-12-07T09:17:47;3.30;99.90
73586;DHT22;61865;50.232;18.614;2022-12-07T09:20:10;3.20;99.90
73586;DHT22;61865;50.232;18.614;2022-12-07T09:22:32;3.30;99.90
73586;DHT22;61865;50.232;18.614;2022-12-07T09:24:54;3.30;99.90
73586;DHT22;61865;50.232;18.614;2022-12-07T09:27:18;3.30;99.90
73586;DHT22;61865;50.232;18.614;2022-12-07T09:29:40;3.40;99.90
73586;DHT22;61865;50.232;18.614;2022-12-07T09:32:02;3.50;99.90
73586;DHT22;61865;50.232;18.614;2022-12-07T09:34:23;3.60;99.90
73586;DHT22;61865;50.232;18.614;2022-12-07T09:36:47;3.60;99.90
73586;DHT22;61865;50.232;18.614;2022-12-07T09:39:09;3.60;99.90
73586;DHT22;61865;50.232;18.614;2022-12-07T09:41:31;3.70;99.90
73586;DHT22;61865;50.232;18.614;2022-12-07T09:44:02;3.60;99.90
73586;DHT22;61865;50.232;18.614;2022-12-07T09:46:32;3.60;99.90
73586;DHT22;61865;50.232;18.614;2022-12-07T09:48:56;3.60;99.90
73586;DHT22;61865;50.232;18.614;2022-12-07T09:51:18;3.60;99.90
73586;DHT22;61865;50.232;18.614;2022-12-07T09:53:41;3.60;99.90
73586;DHT22;61865;50.232;18.614;2022-12-07T09:56:04;3.70;99.90
73586;DHT22;61865;50.232;18.614;2022-12-07T09:58:28;3.70;99.90
73586;DHT22;61865;50.232;18.614;2022-12-07T10:00:55;3.70;99.90
73586;DHT22;61865;50.232;18.614;2022-12-07T10:03:17;3.70;99.90
73586;DHT22;61865;50.232;18.614;2022-12-07T10:05:43;3.70;99.90
73586;DHT22;61865;50.232;18.614;2022-12-07T10:08:07;3.80;99.90
73586;DHT22;61865;50.232;18.614;2022-12-07T10:10:31;3.70;99.90
73586;DHT22;61865;50.232;18.614;2022-12-07T10:12:57;3.80;99.90
73586;DHT22;61865;50.232;18.614;2022-12-07T10:15:19;3.80;99.90
73586;DHT22;61865;50.232;18.614;2022-12-07T10:17:49;3.90;99.90
73586;DHT22;61865;50.232;18.614;2022-12-07T10:20:17;4.00;99.90
73586;DHT22;61865;50.232;18.614;2022-12-07T10:22:54;4.00;99.90
73586;DHT22;61865;50.232;18.614;2022-12-07T10:25:19;3.90;99.90
73586;DHT22;61865;50.232;18.614;2022-12-07T10:27:42;4.10;99.90
73586;DHT22;61865;50.232;18.614;2022-12-07T10:30:07;4.20;99.90
73586;DHT22;61865;50.232;18.614;2022-12-07T10:32:33;4.30;99.90
73586;DHT22;61865;50.232;18.614;2022-12-07T10:35:19;4.30;99.90
73586;DHT22;61865;50.232;18.614;2022-12-07T10:37:41;4.40;99.90
73586;DHT22;61865;50.232;18.614;2022-12-07T10:40:25;4.40;99.90
73586;DHT22;61865;50.232;18.614;2022-12-07T10:43:01;4.30;99.90
73586;DHT22;61865;50.232;18.614;2022-12-07T10:45:23;4.30;99.90
73586;DHT22;61865;50.232;18.614;2022-12-07T10:47:47;4.30;99.90
73586;DHT22;61865;50.232;18.614;2022-12-07T10:50:35;4.20;99.90
73586;DHT22;61865;50.232;18.614;2022-12-07T10:53:13;4.10;99.90
73586;DHT22;61865;50.232;18.614;2022-12-07T10:55:50;4.10;99.90
73586;DHT22;61865;50.232;18.614;2022-12-07T10:58:26;4.10;99.90
73586;DHT22;61865;50.232;18.614;2022-12-07T11:00:56;4.20;99.90
73586;DHT22;61865;50.232;18.614;2022-12-07T11:03:37;4.10;99.90
73586;DHT22;61865;50.232;18.614;2022-12-07T11:06:13;4.00;99.90
73586;DHT22;61865;50.232;18.614;2022-12-07T11:08:57;4.00;99.90
73586;DHT22;61865;50.232;18.614;2022-12-07T11:11:25;4.00;99.90
73586;DHT22;61865;50.232;18.614;2022-12-07T11:13:56;4.00;99.90
73586;DHT22;61865;50.232;18.614;2022-12-07T11:16:25;4.00;99.90
73586;DHT22;61865;50.232;18.614;2022-12-07T11:19:04;4.00;99.90
73586;DHT22;61865;50.232;18.614;2022-12-07T11:21:33;4.10;99.90
73586;DHT22;61865;50.232;18.614;2022-12-07T11:24:03;4.10;99.90
73586;DHT22;61865;50.232;18.614;2022-12-07T11:26:41;4.10;99.90
73586;DHT22;61865;50.232;18.614;2022-12-07T11:29:21;4.20;99.90
73586;DHT22;61865;50.232;18.614;2022-12-07T11:31:58;4.20;99.90
73586;DHT22;61865;50.232;18.614;2022-12-07T11:34:33;4.20;99.90
73586;DHT22;61865;50.232;18.614;2022-12-07T11:37:01;4.10;99.90
73586;DHT22;61865;50.232;18.614;2022-12-07T11:39:28;3.90;99.90
73586;DHT22;61865;50.232;18.614;2022-12-07T11:41:56;4.00;99.90
73586;DHT22;61865;50.232;18.614;2022-12-07T11:44:26;3.80;99.90
73586;DHT22;61865;50.232;18.614;2022-12-07T11:46:55;3.80;99.90
73586;DHT22;61865;50.232;18.614;2022-12-07T11:49:26;3.80;99.90
73586;DHT22;61865;50.232;18.614;2022-12-07T11:51:52;3.90;99.90
73586;DHT22;61865;50.232;18.614;2022-12-07T11:54:21;3.90;99.90
73586;DHT22;61865;50.232;18.614;2022-12-07T11:56:47;3.90;99.90
73586;DHT22;61865;50.232;18.614;2022-12-07T11:59:13;3.90;99.90
73586;DHT22;61865;50.232;18.614;2022-12-07T12:01:50;4.00;99.90
73586;DHT22;61865;50.232;18.614;2022-12-07T12:04:30;4.10;99.90
73586;DHT22;61865;50.232;18.614;2022-12-07T12:06:53;4.20;99.90
73586;DHT22;61865;50.232;18.614;2022-12-07T12:09:19;4.30;99.90
73586;DHT22;61865;50.232;18.614;2022-12-07T12:11:56;4.40;99.90
73586;DHT22;61865;50.232;18.614;2022-12-07T12:14:39;4.40;99.90
73586;DHT22;61865;50.232;18.614;2022-12-07T12:17:29;4.50;99.90
73586;DHT22;61865;50.232;18.614;2022-12-07T12:20:03;4.40;99.90
73586;DHT22;61865;50.232;18.614;2022-12-07T12:22:34;4.40;99.90
73586;DHT22;61865;50.232;18.614;2022-12-07T12:24:59;4.40;99.90
73586;DHT22;61865;50.232;18.614;2022-12-07T12:27:24;4.40;99.90
73586;DHT22;61865;50.232;18.614;2022-12-07T12:29:53;4.40;99.90
73586;DHT22;61865;50.232;18.614;2022-12-07T12:32:17;4.40;99.90
73586;DHT22;61865;50.232;18.614;2022-12-07T12:34:57;4.40;99.90
73586;DHT22;61865;50.232;18.614;2022-12-07T12:37:42;4.40;99.90
73586;DHT22;61865;50.232;18.614;2022-12-07T12:40:41;4.30;99.90
73586;DHT22;61865;50.232;18.614;2022-12-07T12:46:46;4.20;99.90
73586;DHT22;61865;50.232;18.614;2022-12-07T12:49:37;4.20;99.90
73586;DHT22;61865;50.232;18.614;2022-12-07T12:52:00;4.10;99.90
73586;DHT22;61865;50.232;18.614;2022-12-07T12:54:25;4.10;99.90
73586;DHT22;61865;50.232;18.614;2022-12-07T12:56:52;4.00;99.90
73586;DHT22;61865;50.232;18.614;2022-12-07T12:59:28;4.10;99.90
73586;DHT22;61865;50.232;18.614;2022-12-07T13:01:54;4.00;99.90
73586;DHT22;61865;50.232;18.614;2022-12-07T13:04:25;4.00;99.90
73586;DHT22;61865;50.232;18.614;2022-12-07T13:06:48;4.00;99.90
73586;DHT22;61865;50.232;18.614;2022-12-07T13:09:20;4.00;99.90
73586;DHT22;61865;50.232;18.614;2022-12-07T13:11:44;4.00;99.90
73586;DHT22;61865;50.232;18.614;2022-12-07T13:14:39;3.90;99.90
73586;DHT22;61865;50.232;18.614;2022-12-07T13:17:03;3.90;99.90
73586;DHT22;61865;50.232;18.614;2022-12-07T13:19:53;3.80;99.90
73586;DHT22;61865;50.232;18.614;2022-12-07T13:22:52;3.90;99.90
73586;DHT22;61865;50.232;18.614;2022-12-07T13:25:26;3.90;99.90
73586;DHT22;61865;50.232;18.614;2022-12-07T13:27:57;3.90;99.90
73586;DHT22;61865;50.232;18.614;2022-12-07T13:30:21;3.90;99.90
73586;DHT22;61865;50.232;18.614;2022-12-07T13:32:51;3.90;99.90
73586;DHT22;61865;50.232;18.614;2022-12-07T13:35:34;3.90;99.90
73586;DHT22;61865;50.232;18.614;2022-12-07T13:37:58;3.90;99.90
73586;DHT22;61865;50.232;18.614;2022-12-07T13:40:21;3.80;99.90
73586;DHT22;61865;50.232;18.614;2022-12-07T13:42:44;3.80;99.90
73586;DHT22;61865;50.232;18.614;2022-12-07T13:45:21;3.70;99.90
73586;DHT22;61865;50.232;18.614;2022-12-07T13:48:08;3.70;99.90
73586;DHT22;61865;50.232;18.614;2022-12-07T13:50:32;3.80;99.90
73586;DHT22;61865;50.232;18.614;2022-12-07T13:52:55;3.70;99.90
73586;DHT22;61865;50.232;18.614;2022-12-07T13:55:18;3.70;99.90
73586;DHT22;61865;50.232;18.614;2022-12-07T13:57:40;3.60;99.90
73586;DHT22;61865;50.232;18.614;2022-12-07T14:00:05;3.70;99.90
73586;DHT22;61865;50.232;18.614;2022-12-07T14:02:31;3.60;99.90
73586;DHT22;61865;50.232;18.614;2022-12-07T14:05:07;3.60;99.90
73586;DHT22;61865;50.232;18.614;2022-12-07T14:07:29;3.60;99.90
73586;DHT22;61865;50.232;18.614;2022-12-07T14:09:56;3.60;99.90
73586;DHT22;61865;50.232;18.614;2022-12-07T14:12:19;3.60;99.90
73586;DHT22;61865;50.232;18.614;2022-12-07T14:14:47;3.60;99.90
73586;DHT22;61865;50.232;18.614;2022-12-07T14:17:12;3.50;99.90
73586;DHT22;61865;50.232;18.614;2022-12-07T14:19:42;3.50;99.90
73586;DHT22;61865;50.232;18.614;2022-12-07T14:22:20;3.60;99.90
73586;DHT22;61865;50.232;18.614;2022-12-07T14:24:43;3.60;99.90
73586;DHT22;61865;50.232;18.614;2022-12-07T14:27:19;3.60;99.90
73586;DHT22;61865;50.232;18.614;2022-12-07T14:29:45;3.50;99.90
73586;DHT22;61865;50.232;18.614;2022-12-07T14:32:19;3.40;99.90
73586;DHT22;61865;50.232;18.614;2022-12-07T14:34:56;3.50;99.90
73586;DHT22;61865;50.232;18.614;2022-12-07T14:37:19;3.50;99.90
73586;DHT22;61865;50.232;18.614;2022-12-07T14:39:41;3.40;99.90
73586;DHT22;61865;50.232;18.614;2022-12-07T14:42:03;3.50;99.90
73586;DHT22;61865;50.232;18.614;2022-12-07T14:44:28;3.40;99.90
73586;DHT22;61865;50.232;18.614;2022-12-07T14:46:50;3.40;99.90
73586;DHT22;61865;50.232;18.614;2022-12-07T14:49:12;3.40;99.90
73586;DHT22;61865;50.232;18.614;2022-12-07T14:51:39;3.40;99.90
73586;DHT22;61865;50.232;18.614;2022-12-07T14:54:05;3.30;99.90
73586;DHT22;61865;50.232;18.614;2022-12-07T14:56:28;3.30;99.90
73586;DHT22;61865;50.232;18.614;2022-12-07T14:58:49;3.30;99.90
73586;DHT22;61865;50.232;18.614;2022-12-07T15:01:11;3.30;99.90
73586;DHT22;61865;50.232;18.614;2022-12-07T15:03:33;3.30;99.90
73586;DHT22;61865;50.232;18.614;2022-12-07T15:05:58;3.30;99.90
73586;DHT22;61865;50.232;18.614;2022-12-07T15:08:19;3.30;99.90
73586;DHT22;61865;50.232;18.614;2022-12-07T15:10:44;3.30;99.90
73586;DHT22;61865;50.232;18.614;2022-12-07T15:13:06;3.30;99.90
73586;DHT22;61865;50.232;18.614;2022-12-07T15:15:46;3.30;99.90
73586;DHT22;61865;50.232;18.614;2022-12-07T15:18:08;3.20;99.90
73586;DHT22;61865;50.232;18.614;2022-12-07T15:20:30;3.20;99.90
73586;DHT22;61865;50.232;18.614;2022-12-07T15:22:52;3.20;99.90
73586;DHT22;61865;50.232;18.614;2022-12-07T15:25:14;3.20;99.90
73586;DHT22;61865;50.232;18.614;2022-12-07T15:27:38;3.20;99.90